createdAt,value
2019-05-16T00:03:12.865Z,2.30
2019-05-16T00:08:15.319Z,2.10
2019-05-16T00:13:18.578Z,2.20
2019-05-16T00:18:20.247Z,2.03
2019-05-16T00:23:22.701Z,1.60
2019-05-16T00:28:25.169Z,1.77
2019-05-16T00:33:28.656Z,1.97
2019-05-16T00:38:30.089Z,1.80
2019-05-16T00:43:32.528Z,1.90
2019-05-16T00:48:34.987Z,3.17
2019-05-16T00:53:38.233Z,1.93
2019-05-16T00:58:39.921Z,1.90
2019-05-16T01:03:42.378Z,1.90
2019-05-16T01:08:44.855Z,1.77
2019-05-16T01:13:48.755Z,1.90
2019-05-16T01:18:49.777Z,2.50
2019-05-16T01:23:52.239Z,1.90
2019-05-16T01:28:54.713Z,2.30
2019-05-16T01:33:58.379Z,2.00
2019-05-16T01:38:59.651Z,2.00
2019-05-16T01:44:02.100Z,2.37
2019-05-16T01:49:04.565Z,2.10
2019-05-16T01:54:08.746Z,2.60
2019-05-16T01:59:09.479Z,2.33
2019-05-16T02:04:12.401Z,1.90
2019-05-16T02:09:14.389Z,2.17
2019-05-16T02:14:17.709Z,2.30
2019-05-16T02:19:19.332Z,2.20
2019-05-16T02:24:21.794Z,2.37
2019-05-16T02:29:24.257Z,2.40
2019-05-16T02:34:26.705Z,2.07
2019-05-16T02:39:30.483Z,2.80
2019-05-16T02:44:32.202Z,3.27
2019-05-16T02:49:34.437Z,2.70
2019-05-16T02:54:36.552Z,2.33
2019-05-16T02:59:41.628Z,2.63
2019-05-16T03:04:44.296Z,2.30
2019-05-16T03:09:43.906Z,2.50
2019-05-16T03:14:46.362Z,2.30
2019-05-16T03:19:51.029Z,2.17
2019-05-16T03:24:51.617Z,2.47
2019-05-16T03:29:53.749Z,2.00
2019-05-16T03:34:56.206Z,2.03
2019-05-16T03:40:00.485Z,1.97
2019-05-16T03:45:02.299Z,2.20
2019-05-16T03:50:03.585Z,2.67
2019-05-16T03:55:06.038Z,2.20
2019-05-16T04:00:11.409Z,2.60
2019-05-16T04:05:11.571Z,2.10
2019-05-16T04:10:13.567Z,2.33
2019-05-16T04:15:16.039Z,2.23
2019-05-16T04:20:21.250Z,2.30
2019-05-16T04:25:21.833Z,2.20
2019-05-16T04:30:23.450Z,2.37
2019-05-16T04:35:25.912Z,2.43
2019-05-16T04:40:30.977Z,2.10
2019-05-16T04:45:31.793Z,2.13
2019-05-16T04:50:33.286Z,2.33
2019-05-16T04:55:35.746Z,2.60
2019-05-16T05:00:38.200Z,2.20
2019-05-16T05:05:41.369Z,2.27
2019-05-16T05:10:43.107Z,2.20
2019-05-16T05:15:45.563Z,2.60
2019-05-16T05:20:48.030Z,2.30
2019-05-16T05:25:51.248Z,2.30
2019-05-16T05:30:52.965Z,2.07
2019-05-16T05:35:55.430Z,2.40
2019-05-16T05:41:00.097Z,2.30
2019-05-16T05:46:00.920Z,1.90
2019-05-16T05:51:02.962Z,2.10
2019-05-16T05:56:05.413Z,2.13
2019-05-16T06:01:07.881Z,2.47
2019-05-16T06:06:10.727Z,2.20
2019-05-16T06:11:12.817Z,2.13
2019-05-16T06:16:15.261Z,2.20
2019-05-16T06:21:20.068Z,1.90
2019-05-16T06:26:20.571Z,2.33
2019-05-16T06:31:22.653Z,2.70
2019-05-16T06:36:25.112Z,2.60
2019-05-16T06:41:27.567Z,2.30
2019-05-16T06:46:30.677Z,2.00
2019-05-16T06:51:32.499Z,2.40
2019-05-16T06:56:34.954Z,2.20
2019-05-16T07:01:37.402Z,2.30
2019-05-16T07:06:54.890Z,2.10
2019-05-16T07:11:42.324Z,2.40
2019-05-16T07:16:44.769Z,2.10
2019-05-16T07:21:47.221Z,1.93
2019-05-16T07:26:50.256Z,1.97
2019-05-16T07:31:52.554Z,2.00
2019-05-16T07:36:54.687Z,2.10
2019-05-16T07:41:57.154Z,2.10
2019-05-16T07:47:01.033Z,2.03
2019-05-16T07:52:02.219Z,2.20
2019-05-16T07:57:18.531Z,2.10
2019-05-16T08:02:07.053Z,1.83
2019-05-16T08:07:10.794Z,2.50
2019-05-16T08:12:12.031Z,2.03
2019-05-16T08:17:14.495Z,2.30
2019-05-16T08:22:16.963Z,1.90
2019-05-16T08:27:20.812Z,2.20
2019-05-16T08:32:22.964Z,1.93
2019-05-16T08:37:36.893Z,2.20
2019-05-16T08:42:26.851Z,1.90
2019-05-16T08:47:32.180Z,2.00
2019-05-16T08:52:31.871Z,1.70
2019-05-16T08:57:34.209Z,1.70
2019-05-16T09:02:37.041Z,2.20
2019-05-16T09:07:39.119Z,2.15
2019-05-16T09:12:41.585Z,2.00
2019-05-16T09:17:44.060Z,1.73
2019-05-16T09:22:48.074Z,2.10
2019-05-16T09:27:48.936Z,1.93
2019-05-16T09:32:51.404Z,1.90
2019-05-16T09:37:53.891Z,1.90
2019-05-16T09:42:56.915Z,1.77
2019-05-16T09:47:58.798Z,2.53
2019-05-16T09:53:01.303Z,2.10
2019-05-16T09:58:03.755Z,2.13
2019-05-16T10:03:07.157Z,2.40
2019-05-16T10:08:08.746Z,2.23
2019-05-16T10:13:11.137Z,2.05
2019-05-16T10:18:13.594Z,2.17
2019-05-16T10:23:18.148Z,2.40
2019-05-16T10:28:20.084Z,2.70
2019-05-16T10:33:20.986Z,2.40
2019-05-16T10:38:23.417Z,2.13
2019-05-16T10:43:26.495Z,2.27
2019-05-16T10:48:28.333Z,2.10
2019-05-16T10:53:58.084Z,2.20
2019-05-16T10:58:37.992Z,2.40
2019-05-16T11:03:35.699Z,2.27
2019-05-16T11:08:39.656Z,2.40
2019-05-16T11:13:40.721Z,2.20
2019-05-16T11:18:43.182Z,2.30
2019-05-16T11:23:47.097Z,2.57
2019-05-16T11:28:49.039Z,2.23
2019-05-16T11:33:50.560Z,1.93
2019-05-16T11:38:57.318Z,2.20
2019-05-16T11:43:56.888Z,2.07
2019-05-16T11:48:57.946Z,2.20
2019-05-16T11:54:00.433Z,2.30
2019-05-16T11:59:02.906Z,1.83
2019-05-16T12:04:07.797Z,1.85
2019-05-16T12:09:07.862Z,1.95
2019-05-16T12:14:10.326Z,2.03
2019-05-16T12:19:12.781Z,2.10
2019-05-16T12:24:29.271Z,2.30
2019-05-16T12:29:17.738Z,1.90
2019-05-16T12:34:20.191Z,2.07
2019-05-16T12:39:22.660Z,2.43
2019-05-16T12:44:26.913Z,2.47
2019-05-16T12:49:27.567Z,1.93
2019-05-16T12:54:30.029Z,2.23
2019-05-16T12:59:32.498Z,2.27
2019-05-16T13:04:37.318Z,1.83
2019-05-16T13:09:37.429Z,2.30
2019-05-16T13:14:40.527Z,1.97
2019-05-16T13:19:44.701Z,2.40
2019-05-16T13:24:47.694Z,2.17
2019-05-16T13:29:47.772Z,2.10
2019-05-16T13:34:49.746Z,1.67
2019-05-16T13:39:52.214Z,1.80
2019-05-16T13:44:54.697Z,1.93
2019-05-16T13:49:57.170Z,2.07
2019-05-16T13:54:59.765Z,1.77
2019-05-16T14:00:02.232Z,1.90
2019-05-16T14:05:04.682Z,1.80
2019-05-16T14:10:07.248Z,2.20
2019-05-16T14:15:09.890Z,1.83
2019-05-16T14:20:14.927Z,2.00
2019-05-16T14:25:14.905Z,2.13
2019-05-16T14:30:17.909Z,2.10
2019-05-16T14:35:19.856Z,2.00
2019-05-16T14:40:22.428Z,2.23
2019-05-16T14:45:26.371Z,2.33
2019-05-16T14:50:27.799Z,2.53
2019-05-16T14:55:29.824Z,2.20
2019-05-16T15:00:32.305Z,2.50
2019-05-16T15:05:41.853Z,2.30
2019-05-16T15:10:37.730Z,2.30
2019-05-16T15:15:39.860Z,2.20
2019-05-16T15:20:42.322Z,2.60
2019-05-16T15:25:44.787Z,2.60
2019-05-16T15:30:47.259Z,2.30
2019-05-16T15:35:49.733Z,2.93
2019-05-16T15:40:52.197Z,6.00
2019-05-16T15:45:57.854Z,3.50
2019-05-16T15:50:59.793Z,3.40
2019-05-16T15:55:59.595Z,2.50
2019-05-16T16:01:02.102Z,2.43
2019-05-16T16:06:06.829Z,2.53
2019-05-16T16:11:07.564Z,2.40
2019-05-16T16:16:10.793Z,2.30
2019-05-16T16:21:12.065Z,2.40
2019-05-16T16:26:14.559Z,2.10
2019-05-16T16:31:17.079Z,2.50
2019-05-16T16:36:19.497Z,1.73
2019-05-16T16:41:21.954Z,1.97
2019-05-16T16:46:26.917Z,2.10
2019-05-16T16:51:27.059Z,2.73
2019-05-16T16:56:29.354Z,1.97
2019-05-16T17:01:31.837Z,2.13
2019-05-16T17:06:34.289Z,2.00
2019-05-16T17:11:37.152Z,2.20
2019-05-16T17:16:39.220Z,2.00
2019-05-16T17:21:51.186Z,2.17
2019-05-16T17:26:44.165Z,2.20
2019-05-16T17:31:53.781Z,2.50
2019-05-16T17:36:49.109Z,2.20
2019-05-16T17:41:54.834Z,2.43
2019-05-16T17:46:54.059Z,2.00
2019-05-16T17:51:56.562Z,2.53
2019-05-16T17:56:59.064Z,2.20
2019-05-16T18:02:01.553Z,2.20
2019-05-16T18:07:04.008Z,2.10
2019-05-16T18:12:06.974Z,2.03
2019-05-16T18:17:08.969Z,2.40
2019-05-16T18:22:11.453Z,2.10
2019-05-16T18:27:13.979Z,2.23
2019-05-16T18:32:17.031Z,2.00
2019-05-16T18:37:18.950Z,2.70
2019-05-16T18:42:21.436Z,2.40
2019-05-16T18:47:23.900Z,2.33
2019-05-16T18:52:26.354Z,1.93
2019-05-16T18:57:28.823Z,3.00
2019-05-16T19:02:31.291Z,2.50
2019-05-16T19:07:33.753Z,2.87
2019-05-16T19:12:37.111Z,3.40
2019-05-16T19:17:38.688Z,2.93
2019-05-16T19:22:41.152Z,3.10
2019-05-16T19:27:43.652Z,3.23
2019-05-16T19:32:46.865Z,2.77
2019-05-16T19:37:48.635Z,3.17
2019-05-16T19:42:51.119Z,3.10
2019-05-16T19:47:53.583Z,3.47
2019-05-16T19:52:56.730Z,3.77
2019-05-16T19:57:58.543Z,3.60
2019-05-16T20:03:01.029Z,3.57
2019-05-16T20:08:03.587Z,3.53
2019-05-16T20:13:07.793Z,3.73
2019-05-16T20:18:08.504Z,3.40
2019-05-16T20:23:10.982Z,3.73
2019-05-16T20:28:13.467Z,3.47
2019-05-16T20:33:17.920Z,3.83
2019-05-16T20:38:18.433Z,3.70
2019-05-16T20:43:20.892Z,4.00
2019-05-16T20:48:23.401Z,3.90
2019-05-16T20:53:27.129Z,4.00
2019-05-16T20:58:28.338Z,3.80
2019-05-16T21:03:30.932Z,3.90
2019-05-16T21:08:33.804Z,3.73
2019-05-16T21:13:36.273Z,4.20
2019-05-16T21:18:38.740Z,3.80
2019-05-16T21:23:41.222Z,4.10
2019-05-16T21:28:43.693Z,3.70
2019-05-16T21:33:47.088Z,3.87
2019-05-16T21:38:48.607Z,3.50
2019-05-16T21:43:51.075Z,3.63
2019-05-16T21:48:53.531Z,3.73
2019-05-16T21:53:56.423Z,4.10
2019-05-16T21:58:58.476Z,4.30
2019-05-16T22:04:00.927Z,4.03
2019-05-16T22:09:03.394Z,3.70
2019-05-16T22:14:06.501Z,4.03
2019-05-16T22:19:08.305Z,3.87
2019-05-16T22:24:10.798Z,4.03
2019-05-16T22:29:13.241Z,4.10
2019-05-16T22:34:16.943Z,3.70
2019-05-16T22:39:18.153Z,4.10
2019-05-16T22:44:20.626Z,3.70
2019-05-16T22:49:23.090Z,3.83
2019-05-16T22:54:26.259Z,3.77
2019-05-16T22:59:28.019Z,3.93
2019-05-16T23:04:30.528Z,4.27
2019-05-16T23:09:32.990Z,4.60
2019-05-16T23:14:35.445Z,4.40
2019-05-16T23:19:37.919Z,4.90
2019-05-16T23:24:40.397Z,4.87
2019-05-16T23:29:42.851Z,5.20
2019-05-16T23:34:46.627Z,4.63
2019-05-16T23:39:47.783Z,4.73
2019-05-16T23:44:50.242Z,4.80
2019-05-16T23:49:52.700Z,4.03
2019-05-16T23:54:56.967Z,4.73
2019-05-16T23:59:57.634Z,4.27
